sensor_id;sensor_type;location;lat;lon;timestamp;P1;durP1;ratioP1;P2;durP2;ratioP2
40198;SDS011;25906;43.536;26.068;2024-03-02T00:05:26;22.50;;;9.10;;
40198;SDS011;25906;43.536;26.068;2024-03-02T00:08:12;20.52;;;8.02;;
40198;SDS011;25906;43.536;26.068;2024-03-02T00:11:02;25.27;;;9.93;;
40198;SDS011;25906;43.536;26.068;2024-03-02T00:13:48;24.63;;;8.88;;
40198;SDS011;25906;43.536;26.068;2024-03-02T00:16:33;22.30;;;9.60;;
40198;SDS011;25906;43.536;26.068;2024-03-02T00:19:19;22.77;;;9.10;;
40198;SDS011;25906;43.536;26.068;2024-03-02T00:22:04;23.10;;;8.27;;
40198;SDS011;25906;43.536;26.068;2024-03-02T00:24:50;22.90;;;9.02;;
40198;SDS011;25906;43.536;26.068;2024-03-02T00:27:35;25.75;;;9.82;;
40198;SDS011;25906;43.536;26.068;2024-03-02T00:33:43;17.27;;;7.75;;
40198;SDS011;25906;43.536;26.068;2024-03-02T00:36:28;26.00;;;8.55;;
40198;SDS011;25906;43.536;26.068;2024-03-02T00:39:14;23.98;;;8.98;;
40198;SDS011;25906;43.536;26.068;2024-03-02T00:42:02;26.83;;;9.57;;
40198;SDS011;25906;43.536;26.068;2024-03-02T00:44:47;19.63;;;8.88;;
40198;SDS011;25906;43.536;26.068;2024-03-02T00:47:37;32.50;;;10.13;;
40198;SDS011;25906;43.536;26.068;2024-03-02T00:50:24;22.70;;;8.73;;
40198;SDS011;25906;43.536;26.068;2024-03-02T00:53:09;20.00;;;8.73;;
40198;SDS011;25906;43.536;26.068;2024-03-02T00:55:56;25.15;;;7.53;;
40198;SDS011;25906;43.536;26.068;2024-03-02T00:58:42;20.42;;;9.63;;
40198;SDS011;25906;43.536;26.068;2024-03-02T01:01:27;19.60;;;8.35;;
40198;SDS011;25906;43.536;26.068;2024-03-02T01:04:13;24.42;;;8.90;;
40198;SDS011;25906;43.536;26.068;2024-03-02T01:09:44;24.73;;;8.63;;
40198;SDS011;25906;43.536;26.068;2024-03-02T01:12:30;29.90;;;9.48;;
40198;SDS011;25906;43.536;26.068;2024-03-02T01:15:15;26.80;;;10.45;;
40198;SDS011;25906;43.536;26.068;2024-03-02T01:18:01;27.10;;;9.25;;
40198;SDS011;25906;43.536;26.068;2024-03-02T01:20:46;28.60;;;9.85;;
40198;SDS011;25906;43.536;26.068;2024-03-02T01:23:32;23.35;;;9.02;;
40198;SDS011;25906;43.536;26.068;2024-03-02T01:26:17;22.48;;;9.57;;
40198;SDS011;25906;43.536;26.068;2024-03-02T01:29:03;22.02;;;9.07;;
40198;SDS011;25906;43.536;26.068;2024-03-02T01:31:48;18.38;;;8.98;;
40198;SDS011;25906;43.536;26.068;2024-03-02T01:34:33;26.42;;;10.77;;
40198;SDS011;25906;43.536;26.068;2024-03-02T01:37:19;21.58;;;9.45;;
40198;SDS011;25906;43.536;26.068;2024-03-02T01:40:04;29.63;;;10.45;;
40198;SDS011;25906;43.536;26.068;2024-03-02T01:42:54;23.40;;;9.57;;
40198;SDS011;25906;43.536;26.068;2024-03-02T01:45:40;25.35;;;9.18;;
40198;SDS011;25906;43.536;26.068;2024-03-02T01:48:26;19.92;;;8.82;;
40198;SDS011;25906;43.536;26.068;2024-03-02T01:51:11;27.35;;;9.90;;
40198;SDS011;25906;43.536;26.068;2024-03-02T01:53:57;21.52;;;9.70;;
40198;SDS011;25906;43.536;26.068;2024-03-02T01:56:42;24.83;;;9.65;;
40198;SDS011;25906;43.536;26.068;2024-03-02T01:59:28;20.77;;;8.98;;
40198;SDS011;25906;43.536;26.068;2024-03-02T02:02:14;27.20;;;10.73;;
40198;SDS011;25906;43.536;26.068;2024-03-02T02:05:00;27.85;;;10.45;;
40198;SDS011;25906;43.536;26.068;2024-03-02T02:07:45;27.40;;;9.55;;
40198;SDS011;25906;43.536;26.068;2024-03-02T02:10:31;26.05;;;9.27;;
40198;SDS011;25906;43.536;26.068;2024-03-02T02:13:16;31.92;;;10.35;;
40198;SDS011;25906;43.536;26.068;2024-03-02T02:16:05;25.00;;;9.98;;
40198;SDS011;25906;43.536;26.068;2024-03-02T02:18:51;17.88;;;8.68;;
40198;SDS011;25906;43.536;26.068;2024-03-02T02:21:37;20.08;;;8.68;;
40198;SDS011;25906;43.536;26.068;2024-03-02T02:24:22;27.92;;;10.20;;
40198;SDS011;25906;43.536;26.068;2024-03-02T02:27:08;21.88;;;9.40;;
40198;SDS011;25906;43.536;26.068;2024-03-02T02:29:54;28.55;;;10.10;;
40198;SDS011;25906;43.536;26.068;2024-03-02T02:32:41;24.42;;;9.45;;
40198;SDS011;25906;43.536;26.068;2024-03-02T02:35:26;26.95;;;9.23;;
40198;SDS011;25906;43.536;26.068;2024-03-02T02:38:12;26.83;;;8.73;;
40198;SDS011;25906;43.536;26.068;2024-03-02T02:40:57;22.25;;;8.00;;
40198;SDS011;25906;43.536;26.068;2024-03-02T02:43:43;21.35;;;8.90;;
40198;SDS011;25906;43.536;26.068;2024-03-02T02:46:28;24.92;;;9.35;;
40198;SDS011;25906;43.536;26.068;2024-03-02T02:49:14;18.23;;;8.95;;
40198;SDS011;25906;43.536;26.068;2024-03-02T02:51:59;22.40;;;9.45;;
40198;SDS011;25906;43.536;26.068;2024-03-02T02:54:45;27.20;;;9.52;;
40198;SDS011;25906;43.536;26.068;2024-03-02T02:57:31;23.42;;;9.15;;
40198;SDS011;25906;43.536;26.068;2024-03-02T03:00:20;21.15;;;9.10;;
40198;SDS011;25906;43.536;26.068;2024-03-02T03:03:07;26.70;;;8.98;;
40198;SDS011;25906;43.536;26.068;2024-03-02T03:05:53;21.80;;;8.48;;
40198;SDS011;25906;43.536;26.068;2024-03-02T03:08:38;22.45;;;8.70;;
40198;SDS011;25906;43.536;26.068;2024-03-02T03:11:23;23.50;;;10.23;;
40198;SDS011;25906;43.536;26.068;2024-03-02T03:14:11;22.77;;;9.35;;
40198;SDS011;25906;43.536;26.068;2024-03-02T03:16:56;26.33;;;8.90;;
40198;SDS011;25906;43.536;26.068;2024-03-02T03:19:42;24.35;;;9.45;;
40198;SDS011;25906;43.536;26.068;2024-03-02T03:22:27;20.02;;;7.50;;
40198;SDS011;25906;43.536;26.068;2024-03-02T03:25:13;29.35;;;8.73;;
40198;SDS011;25906;43.536;26.068;2024-03-02T03:27:58;28.48;;;10.02;;
40198;SDS011;25906;43.536;26.068;2024-03-02T03:30:44;21.70;;;9.57;;
40198;SDS011;25906;43.536;26.068;2024-03-02T03:33:29;29.88;;;9.35;;
40198;SDS011;25906;43.536;26.068;2024-03-02T03:36:15;21.10;;;9.27;;
40198;SDS011;25906;43.536;26.068;2024-03-02T03:39:00;28.60;;;9.13;;
40198;SDS011;25906;43.536;26.068;2024-03-02T03:41:48;22.48;;;9.00;;
40198;SDS011;25906;43.536;26.068;2024-03-02T03:44:33;30.67;;;9.70;;
40198;SDS011;25906;43.536;26.068;2024-03-02T03:47:19;19.83;;;8.75;;
40198;SDS011;25906;43.536;26.068;2024-03-02T03:50:05;27.98;;;9.77;;
40198;SDS011;25906;43.536;26.068;2024-03-02T03:52:52;24.85;;;8.48;;
40198;SDS011;25906;43.536;26.068;2024-03-02T03:55:37;20.77;;;9.15;;
40198;SDS011;25906;43.536;26.068;2024-03-02T03:58:23;23.75;;;9.18;;
40198;SDS011;25906;43.536;26.068;2024-03-02T04:01:08;28.17;;;10.13;;
40198;SDS011;25906;43.536;26.068;2024-03-02T04:03:54;24.05;;;8.85;;
40198;SDS011;25906;43.536;26.068;2024-03-02T04:06:40;30.25;;;9.85;;
40198;SDS011;25906;43.536;26.068;2024-03-02T04:09:25;25.02;;;9.20;;
40198;SDS011;25906;43.536;26.068;2024-03-02T04:12:11;27.38;;;9.13;;
40198;SDS011;25906;43.536;26.068;2024-03-02T04:14:58;24.73;;;9.38;;
40198;SDS011;25906;43.536;26.068;2024-03-02T04:17:43;23.67;;;10.00;;
40198;SDS011;25906;43.536;26.068;2024-03-02T04:20:29;20.40;;;9.55;;
40198;SDS011;25906;43.536;26.068;2024-03-02T04:26:00;27.90;;;9.43;;
40198;SDS011;25906;43.536;26.068;2024-03-02T04:28:46;26.58;;;9.32;;
40198;SDS011;25906;43.536;26.068;2024-03-02T04:31:32;23.92;;;9.73;;
40198;SDS011;25906;43.536;26.068;2024-03-02T04:34:17;29.50;;;10.35;;
40198;SDS011;25906;43.536;26.068;2024-03-02T04:37:03;26.42;;;9.45;;
40198;SDS011;25906;43.536;26.068;2024-03-02T04:39:48;25.02;;;9.57;;
40198;SDS011;25906;43.536;26.068;2024-03-02T04:42:34;25.85;;;9.43;;
40198;SDS011;25906;43.536;26.068;2024-03-02T04:45:20;37.38;;;10.48;;
40198;SDS011;25906;43.536;26.068;2024-03-02T04:48:05;25.40;;;9.23;;
40198;SDS011;25906;43.536;26.068;2024-03-02T04:50:51;21.90;;;9.52;;
40198;SDS011;25906;43.536;26.068;2024-03-02T04:53:37;22.75;;;8.70;;
40198;SDS011;25906;43.536;26.068;2024-03-02T04:56:23;30.20;;;10.23;;
40198;SDS011;25906;43.536;26.068;2024-03-02T04:59:17;29.27;;;10.13;;
40198;SDS011;25906;43.536;26.068;2024-03-02T05:02:03;29.75;;;10.57;;
40198;SDS011;25906;43.536;26.068;2024-03-02T05:04:48;26.63;;;10.32;;
40198;SDS011;25906;43.536;26.068;2024-03-02T05:07:34;29.38;;;10.32;;
40198;SDS011;25906;43.536;26.068;2024-03-02T05:10:20;34.03;;;10.35;;
40198;SDS011;25906;43.536;26.068;2024-03-02T05:13:06;31.08;;;12.20;;
40198;SDS011;25906;43.536;26.068;2024-03-02T05:15:51;23.15;;;9.30;;
40198;SDS011;25906;43.536;26.068;2024-03-02T05:18:37;20.42;;;10.05;;
40198;SDS011;25906;43.536;26.068;2024-03-02T05:21:23;32.85;;;11.10;;
40198;SDS011;25906;43.536;26.068;2024-03-02T05:24:08;26.90;;;11.18;;
40198;SDS011;25906;43.536;26.068;2024-03-02T05:26:55;32.03;;;10.95;;
40198;SDS011;25906;43.536;26.068;2024-03-02T05:29:40;23.33;;;10.15;;
40198;SDS011;25906;43.536;26.068;2024-03-02T05:32:26;31.65;;;9.98;;
40198;SDS011;25906;43.536;26.068;2024-03-02T05:35:11;27.58;;;10.30;;
40198;SDS011;25906;43.536;26.068;2024-03-02T05:40:44;25.15;;;11.00;;
40198;SDS011;25906;43.536;26.068;2024-03-02T05:43:29;30.48;;;12.57;;
40198;SDS011;25906;43.536;26.068;2024-03-02T05:46:15;28.45;;;11.85;;
40198;SDS011;25906;43.536;26.068;2024-03-02T05:49:00;28.00;;;10.18;;
40198;SDS011;25906;43.536;26.068;2024-03-02T05:51:46;25.45;;;10.73;;
40198;SDS011;25906;43.536;26.068;2024-03-02T05:54:31;28.20;;;11.20;;
40198;SDS011;25906;43.536;26.068;2024-03-02T05:57:17;27.27;;;11.65;;
40198;SDS011;25906;43.536;26.068;2024-03-02T06:00:11;27.45;;;12.32;;
40198;SDS011;25906;43.536;26.068;2024-03-02T06:02:57;26.85;;;10.90;;
40198;SDS011;25906;43.536;26.068;2024-03-02T06:05:43;30.73;;;12.60;;
40198;SDS011;25906;43.536;26.068;2024-03-02T06:08:28;29.00;;;11.40;;
40198;SDS011;25906;43.536;26.068;2024-03-02T06:11:14;35.15;;;12.65;;
40198;SDS011;25906;43.536;26.068;2024-03-02T06:13:59;28.20;;;12.82;;
40198;SDS011;25906;43.536;26.068;2024-03-02T06:16:45;34.95;;;14.43;;
40198;SDS011;25906;43.536;26.068;2024-03-02T06:19:30;34.67;;;12.88;;
40198;SDS011;25906;43.536;26.068;2024-03-02T06:22:16;32.20;;;11.98;;
40198;SDS011;25906;43.536;26.068;2024-03-02T06:25:01;40.92;;;13.52;;
40198;SDS011;25906;43.536;26.068;2024-03-02T06:27:47;35.80;;;14.15;;
40198;SDS011;25906;43.536;26.068;2024-03-02T06:30:32;32.80;;;13.48;;
40198;SDS011;25906;43.536;26.068;2024-03-02T06:33:18;34.97;;;14.20;;
40198;SDS011;25906;43.536;26.068;2024-03-02T06:36:03;28.05;;;12.40;;
40198;SDS011;25906;43.536;26.068;2024-03-02T06:41:35;30.88;;;14.48;;
40198;SDS011;25906;43.536;26.068;2024-03-02T06:44:20;29.38;;;13.82;;
